createdAt,value
2022-11-02T00:02:15.866Z,25.00
2022-11-02T00:08:30.293Z,25.00
2022-11-02T00:14:43.981Z,24.90
2022-11-02T00:20:57.398Z,24.90
2022-11-02T00:27:15.172Z,24.90
2022-11-02T00:33:32.987Z,24.90
2022-11-02T00:39:43.658Z,24.90
2022-11-02T00:45:58.662Z,24.80
2022-11-02T00:52:12.169Z,24.90
2022-11-02T00:58:27.162Z,24.90
2022-11-02T01:04:42.176Z,24.90
2022-11-02T01:10:54.883Z,24.90
2022-11-02T01:17:09.833Z,24.90
2022-11-02T01:23:23.739Z,24.80
2022-11-02T01:29:36.665Z,24.80
2022-11-02T01:35:48.426Z,24.90
2022-11-02T01:41:57.763Z,24.80
2022-11-02T01:48:11.597Z,24.80
2022-11-02T01:54:26.307Z,24.70
2022-11-02T02:00:38.128Z,24.70
2022-11-02T02:06:47.955Z,24.70
2022-11-02T02:13:05.263Z,24.70
2022-11-02T02:19:25.185Z,24.70
2022-11-02T02:26:07.224Z,24.70
2022-11-02T02:32:20.439Z,24.60
2022-11-02T02:38:38.232Z,24.80
2022-11-02T02:44:54.940Z,25.00
2022-11-02T02:51:06.644Z,24.80
2022-11-02T02:57:18.548Z,24.80
2022-11-02T03:03:29.784Z,24.70
2022-11-02T03:09:45.444Z,24.60
2022-11-02T03:16:01.659Z,24.60
2022-11-02T03:22:16.511Z,24.60
2022-11-02T03:28:33.121Z,24.60
2022-11-02T03:34:47.686Z,24.50
2022-11-02T03:41:02.043Z,24.40
2022-11-02T03:47:15.887Z,24.30
2022-11-02T03:53:33.453Z,24.40
2022-11-02T03:59:46.277Z,24.40
2022-11-02T04:06:02.301Z,24.30
2022-11-02T04:12:28.202Z,24.30
2022-11-02T04:18:58.492Z,24.30
2022-11-02T04:25:23.108Z,24.30
2022-11-02T04:31:35.709Z,24.20
2022-11-02T04:38:03.793Z,24.10
2022-11-02T04:44:17.673Z,24.00
2022-11-02T04:50:34.454Z,24.10
2022-11-02T04:56:48.886Z,24.20
2022-11-02T05:03:08.173Z,24.10
2022-11-02T05:09:19.104Z,24.00
2022-11-02T05:15:36.215Z,23.90
2022-11-02T05:21:50.044Z,24.00
2022-11-02T05:28:03.328Z,24.10
2022-11-02T05:34:19.003Z,23.90
2022-11-02T05:40:32.967Z,23.80
2022-11-02T05:46:45.641Z,23.80
2022-11-02T05:52:56.710Z,24.00
2022-11-02T05:59:11.326Z,24.00
2022-11-02T06:05:25.314Z,23.80
2022-11-02T06:11:37.864Z,23.80
2022-11-02T06:17:52.632Z,23.70
2022-11-02T06:24:04.090Z,24.00
2022-11-02T06:30:20.775Z,23.90
2022-11-02T06:36:32.172Z,23.70
2022-11-02T06:42:45.083Z,23.70
2022-11-02T06:48:58.057Z,23.70
2022-11-02T06:55:16.834Z,23.80
2022-11-02T07:01:29.302Z,23.70
2022-11-02T07:07:44.458Z,23.70
2022-11-02T07:13:56.206Z,23.70
2022-11-02T07:20:13.889Z,23.70
2022-11-02T07:26:24.828Z,23.80
2022-11-02T07:32:41.985Z,23.70
2022-11-02T07:38:53.986Z,23.60
2022-11-02T07:45:09.068Z,23.60
2022-11-02T07:51:20.701Z,23.60
2022-11-02T07:57:35.058Z,23.70
2022-11-02T08:03:46.995Z,23.60
2022-11-02T08:10:05.788Z,23.60
2022-11-02T08:16:17.486Z,23.60
2022-11-02T08:22:35.321Z,23.50
2022-11-02T08:28:50.090Z,23.60
2022-11-02T08:34:58.863Z,23.50
2022-11-02T08:41:13.312Z,23.50
2022-11-02T08:47:27.213Z,23.50
2022-11-02T08:53:42.940Z,23.50
2022-11-02T08:59:53.364Z,23.40
2022-11-02T09:06:05.265Z,23.40
2022-11-02T09:12:17.628Z,23.30
2022-11-02T09:18:30.850Z,23.30
2022-11-02T09:24:42.090Z,23.30
2022-11-02T09:30:54.825Z,23.30
2022-11-02T09:37:10.785Z,23.20
2022-11-02T09:43:31.108Z,23.20
2022-11-02T09:49:42.413Z,23.20
2022-11-02T09:55:55.918Z,23.20
2022-11-02T10:02:13.608Z,23.20
2022-11-02T10:08:44.178Z,23.10
2022-11-02T10:15:00.143Z,23.00
2022-11-02T10:21:16.180Z,23.10
2022-11-02T10:27:33.158Z,23.10
2022-11-02T10:33:52.848Z,23.00
2022-11-02T10:40:06.530Z,22.90
2022-11-02T10:46:25.107Z,22.90
2022-11-02T10:52:38.200Z,23.00
2022-11-02T10:58:54.271Z,23.00
2022-11-02T11:05:10.319Z,22.80
2022-11-02T11:11:27.993Z,22.80
2022-11-02T11:23:56.377Z,22.90
2022-11-02T11:30:10.232Z,22.80
2022-11-02T11:36:28.191Z,22.70
2022-11-02T11:42:39.890Z,22.80
2022-11-02T11:48:57.301Z,22.90
2022-11-02T11:55:13.807Z,23.30
2022-11-02T12:01:28.057Z,23.50
2022-11-02T12:08:01.697Z,23.50
2022-11-02T12:14:37.792Z,23.30
2022-11-02T12:21:05.517Z,23.30
2022-11-02T12:27:24.309Z,23.50
2022-11-02T12:33:47.865Z,23.70
2022-11-02T12:40:12.054Z,23.90
2022-11-02T12:46:38.316Z,23.60
2022-11-02T12:52:51.848Z,23.40
2022-11-02T12:59:07.164Z,23.40
2022-11-02T13:05:22.729Z,23.70
2022-11-02T13:11:35.139Z,24.00
2022-11-02T13:17:48.218Z,23.80
2022-11-02T13:24:06.660Z,23.60
2022-11-02T13:30:24.708Z,23.60
2022-11-02T13:36:39.607Z,23.70
2022-11-02T13:43:20.006Z,23.80
2022-11-02T13:49:34.338Z,24.00
2022-11-02T13:55:51.576Z,24.10
2022-11-02T14:02:10.442Z,24.10
2022-11-02T14:08:26.060Z,24.10
2022-11-02T14:14:34.868Z,24.00
2022-11-02T14:20:50.020Z,24.10
2022-11-02T14:27:03.553Z,24.10
2022-11-02T14:33:15.110Z,24.10
2022-11-02T14:39:30.871Z,24.20
2022-11-02T14:45:51.293Z,24.40
2022-11-02T14:52:20.866Z,24.70
2022-11-02T14:58:41.685Z,24.90
2022-11-02T15:05:00.081Z,25.00
2022-11-02T15:11:48.069Z,25.00
2022-11-02T15:18:09.614Z,25.10
2022-11-02T15:24:28.454Z,25.20
2022-11-02T15:30:41.035Z,25.20
2022-11-02T15:36:52.042Z,25.20
2022-11-02T15:43:10.669Z,25.20
2022-11-02T15:49:30.016Z,25.30
2022-11-02T15:55:49.323Z,25.40
2022-11-02T16:02:28.143Z,25.50
2022-11-02T16:08:40.991Z,25.50
2022-11-02T16:14:59.148Z,25.50
2022-11-02T16:21:16.993Z,25.50
2022-11-02T16:27:28.566Z,25.50
2022-11-02T16:33:45.229Z,25.60
2022-11-02T16:40:00.308Z,25.60
2022-11-02T16:46:13.983Z,25.60
2022-11-02T16:52:24.681Z,25.70
2022-11-02T16:58:38.242Z,25.70
2022-11-02T17:04:49.014Z,25.70
2022-11-02T17:11:06.203Z,25.80
2022-11-02T17:17:35.260Z,25.90
2022-11-02T17:23:46.817Z,26.00
2022-11-02T17:30:00.674Z,26.00
2022-11-02T17:36:15.242Z,26.00
2022-11-02T17:42:42.934Z,25.90
2022-11-02T17:48:57.649Z,25.90
2022-11-02T17:55:11.642Z,25.80
2022-11-02T18:01:30.352Z,25.90
2022-11-02T18:07:47.873Z,25.90
2022-11-02T18:13:57.752Z,25.90
2022-11-02T18:20:10.338Z,26.00
2022-11-02T18:26:22.401Z,26.00
2022-11-02T18:32:38.102Z,26.00
2022-11-02T18:38:53.977Z,26.00
2022-11-02T18:45:11.017Z,26.00
2022-11-02T18:51:23.601Z,26.00
2022-11-02T18:57:35.883Z,26.00
2022-11-02T19:03:47.300Z,26.00
2022-11-02T19:10:03.629Z,26.00
2022-11-02T19:16:13.663Z,26.00
2022-11-02T19:22:27.678Z,25.90
2022-11-02T19:28:42.385Z,25.80
2022-11-02T19:34:58.757Z,25.80
2022-11-02T19:41:17.788Z,25.80
2022-11-02T19:47:34.081Z,25.70
2022-11-02T19:53:45.639Z,25.70
2022-11-02T19:59:56.626Z,25.70
2022-11-02T20:06:08.831Z,25.70
2022-11-02T20:12:21.280Z,25.60
2022-11-02T20:18:33.710Z,25.50
2022-11-02T20:24:45.048Z,25.50
2022-11-02T20:30:56.230Z,25.50
2022-11-02T20:37:10.881Z,25.50
2022-11-02T20:43:22.903Z,25.50
2022-11-02T20:49:50.058Z,25.40
2022-11-02T20:55:49.468Z,25.50
2022-11-02T21:02:02.512Z,25.40
2022-11-02T21:08:17.816Z,25.30
2022-11-02T21:14:36.353Z,25.20
2022-11-02T21:20:57.901Z,25.20
2022-11-02T21:27:12.007Z,25.30
2022-11-02T21:33:30.533Z,25.20
2022-11-02T21:39:45.538Z,25.20
2022-11-02T21:46:06.770Z,25.10
2022-11-02T21:52:20.364Z,25.10
2022-11-02T21:58:42.914Z,25.10
2022-11-02T22:04:54.667Z,25.10
2022-11-02T22:11:14.562Z,25.10
2022-11-02T22:17:48.451Z,25.10
2022-11-02T22:23:43.904Z,25.00
2022-11-02T22:29:52.769Z,25.00
2022-11-02T22:36:05.133Z,25.00
2022-11-02T22:42:20.071Z,25.10
2022-11-02T22:48:36.675Z,25.00
2022-11-02T22:54:47.174Z,25.00
2022-11-02T23:01:04.050Z,25.00
2022-11-02T23:07:18.636Z,25.00
2022-11-02T23:13:34.331Z,25.00
2022-11-02T23:19:47.503Z,24.90
2022-11-02T23:26:08.417Z,25.00
2022-11-02T23:32:34.534Z,25.40
2022-11-02T23:39:04.211Z,25.40
2022-11-02T23:45:18.749Z,25.20
2022-11-02T23:51:48.293Z,25.10
2022-11-02T23:58:02.236Z,25.00
